View Sortable Currents For Network
ASOSAWOSCoCoRaHSCOOPDCPISUSM
SchoolNetOtherSCANMy FavoritesBy StateRWIS
RWIS SurfaceRWIS TrafficRWIS SoilBy NWS WFO

Current RWIS Surface Conditions

** This page will automatically refresh every 10 minutes.
Click on a column to sort it.

Sorted by: Observation Time

ADD: Station: Ob Time Air: Sensor 1 Sensor 2 Sensor 3 Sensor 4    
Temp Dew P Temp Temp Temp Temp Sub T Ave Surface Temp [1]
Ida Grove (US 59)05:00 AM28.58 21.2 23.9 23.4 23.7 M M 0
Anamosa (US 151)05:00 AM14.72 13.82 18.5 16 17.6 M M 13
Alton (IA10)05:00 AM27.5 23.36 M 23.2 M M M 0
Cambridge I-3505:00 AMM M M M M M M 0
Sibley05:00 AM23.18 23.18 21.6 20.8 21.4 M M 0
Bedford05:00 AM32.72 24.26 28.4 27.5 M M M 0
Cedar Rapids (I-380)05:00 AM20.48 19.22 20.8 20.5 20.7 21.4 M 20.8
Decorah (IA 9)05:00 AM14.72 14.72 16.7 13.5 M M M 7.5
Tama05:00 AM14 -95.98 18.3 15.6 M M M 8.5
New Hampton (US 18)05:00 AM17.06 15.8 M 17.2 M M M 4.3
Ames (I-35)05:00 AM22.46 21.38 21.4 20.7 21 M M 0
Cedar Rapids (US 30)05:00 AM16.7 16.16 18.7 18.1 21 M M 12.3
Plainfield05:00 AM14.18 -10.12 17.8 14.2 M M M 8
Carroll (US 30)05:00 AM27.14 25.16 23.9 23.9 23.5 M M 0
Waterloo (US 20)05:00 AM16.16 16.16 M 17.4 16.9 16.7 M 12.8
Mason City (I-35)05:00 AM29.12 -17.5 18.7 21.7 18.3 M M 12.3
Tipton (I-80)05:00 AM15.98 14.9 19 17.8 M M M 9.2
Avoca (I-80)05:00 AM30.38 27.86 27.1 27 26.2 M M 0
Williamsburg (I-80)05:00 AM17.06 16.16 M 17.6 19 M M 9.2
Williams (I-35)05:00 AM12.92 10.76 18.3 14.4 M M M 8.2
Cantril05:00 AM28.04 18.5 23.7 23.7 M M M 0
Hanlontown (I-35)05:00 AM18.5 17.78 21 19.2 19 M M 12.8
Moville05:00 AM30.92 26.24 25.2 23.2 M M M 0
Sioux City Maintenance05:00 AMM M M M M M M 0
Council Bluffs (I-80)05:00 AM32.9 -14.62 28.9 M M M M 0
De Soto (I-80/US 169)05:00 AM24.62 24.26 24.3 22.6 22.8 24.1 M 23.5
Elkhart I-35 No105:00 AMM M M M M M M 0
Quad Cities05:00 AM20.48 19.4 M M M M M 0
Centerville (IA 2)05:00 AM28.04 24.8 24.6 25.5 M M M 0
Council Bluffs No205:00 AM34.16 22.1 28.8 29.1 M M M 0
Elkhart I-35 No205:00 AMM M M M M M M 0
Creston (US 34)05:00 AM29.66 23.72 25.5 26.2 M M M 0
Rockwell City05:00 AM22.64 23.54 21.2 21.4 M M M 0
Altoona (I-80/US 65)05:00 AM24.62 23.36 24.1 22.3 22.5 24.6 M 23.4
Sigourney (IA 92)05:00 AMM M 18.7 18.5 14.7 M M 13
Colfax - I-8005:00 AM23 21.92 22.5 22.5 21.9 M M 0
Algona (US 18)05:00 AM19.22 18.32 22.8 22.1 M M M 0
Des Moines (I-235)05:00 AM25.7 22.64 24.4 23.7 M M M 0
Estherville - Hwy 905:00 AM21.2 21.02 20.1 21 M M M 0
Adair (I-80)05:00 AM29.12 25.16 24.6 24.8 25.5 24.6 M 24.9
Burlington (US 34)05:00 AM26.06 26.06 22.6 22.5 20.7 M M 0
Leon (I-35)/IA 2)05:01 AM27.68 23.9 26.4 25.9 26.6 M M 0
Spencer (US 18)05:01 AMM M M 21.4 M M M 0
Osceola (I-35)05:01 AM28.04 26.96 24.6 25 27 M M 0
Mount Pleasant (US 218)05:01 AM18.32 17.42 20.8 18.9 M M M 6.3
Manchester (US 20)05:01 AM13.46 12.02 19.6 M 19.8 16 M 13.8
Iowa City (US 218)05:01 AM16.7 16.7 20.5 18.3 17.8 M M 12
Davenport (I-80/I-280)05:01 AM18.86 15.98 17.8 15.6 17.6 24.1 M 18.8
Iowa City (I-80)05:01 AMM M M 19.8 19.6 M M 9.8
Maquoketa (US 61/IA 64)05:01 AM14 12.38 20.8 16.5 16.7 19 M 18.3
Pella (IA 163)05:01 AM22.46 20.84 21.2 20.7 21 M M 0
Jefferson (IA 4)05:01 AM27.32 25.7 22.6 22.3 M M M 0
Missouri Valley (I-29)05:01 AM33.8 24.62 29.3 28.6 28.9 M M 0
Sloan I-2905:01 AM30.56 24.44 27.1 26.2 M M M 0
Fort Dodge (US 20)05:01 AM20.12 17.78 17.4 17.1 18.7 M M 13.3
Storm Lake (US 71/IA 3)05:01 AM23.9 23.18 23.2 23.9 M M M 0
Sidney (I-29/IA 2)05:02 AM28.94 24.62 32.5 28.8 28 28.2 M 29.4
Denison05:02 AM27.86 22.46 24.6 23.7 M M M 0
Red Oak (US 34/US 71)05:02 AM32.54 24.26 26.6 27.3 28.8 M M 0
Urbana (I-380)05:02 AM15.08 14.9 19.4 15.6 16 M M 12.8
Ottumwa (US 63)05:02 AM23.72 22.64 21.4 22.5 21.7 M M 0
Ankeny (I-35)05:02 AM25.7 24.98 23.2 22.8 22.8 M M 0
De Witt (US 30/US 61)05:03 AM9.86 9.86 18.3 M 13.5 M M 7.9
Marshalltown (US 30)05:03 AM21.38 21.02 20.1 19.8 19.2 M M 13
Des Moines (I-35)05:03 AM25.7 23.18 M 23.7 23 23.5 M 0
Dubuque (US 20)05:04 AM17.24 17.06 17.2 14.9 14 M M 11.5
Steamboat Rock (US20)05:04 AM15.8 14.54 16.3 15.1 15.3 M M 11.7
Oskaloosa Hwy 9205:09 AM20.4 43.6 183.1 M M M M 0
Sigourney Hwy 14905:09 AM20.3 19.3 24 M M M M 0


Notes:
1 The average surface temperature is calculated by the IEM using some logic to account for sites without 4 sensors or broken sensors.